Time;durP1;ratioP1;P1;durP2;ratioP2;P2;SDS_P1;SDS_P2;PMS_P1;PMS_P2;Temp;Humidity;BMP_temperature;BMP_pressure;BME280_temperature;BME280_humidity;BME280_pressure;Samples;Min_cycle;Max_cycle;Signal;HPM_P1;HPM_P2
2022/06/22 00:00:06;;;;;;;15.20;8.95;;;;;;;22.43;70.20;94518.97;4934914;29;20532;-78
2022/06/22 00:02:37;;;;;;;8.95;6.57;;;;;;;22.53;70.24;94532.22;4934923;29;20624;-78
2022/06/22 00:05:35;;;;;;;13.20;6.43;;;;;;;22.51;70.44;94528.22;4934833;29;20265;-78
2022/06/22 00:08:05;;;;;;;12.82;6.30;;;;;;;22.49;70.14;94531.19;4926505;29;20281;-78
2022/06/22 00:10:39;;;;;;;8.70;5.70;;;;;;;22.47;70.17;94524.56;4934645;29;20207;-78
2022/06/22 00:13:15;;;;;;;11.82;6.90;;;;;;;22.50;70.52;94526.63;4934758;29;20183;-78
2022/06/22 00:15:48;;;;;;;9.43;5.63;;;;;;;22.44;70.53;94541.22;4934573;29;20212;-78
2022/06/22 00:18:41;;;;;;;13.38;7.20;;;;;;;22.31;70.80;94517.84;4934726;29;20167;-79
2022/06/22 00:21:22;;;;;;;12.55;6.97;;;;;;;22.38;70.74;94540.53;4924049;29;20191;-78
2022/06/22 00:23:51;;;;;;;10.93;6.40;;;;;;;22.38;70.51;94535.16;4938441;29;20182;-78
2022/06/22 00:26:22;;;;;;;8.13;6.00;;;;;;;22.35;70.66;94535.72;4937847;29;20195;-78
2022/06/22 00:29:04;;;;;;;10.60;6.22;;;;;;;22.24;71.19;94533.47;4937914;29;20205;-78
2022/06/22 00:31:30;;;;;;;10.48;6.47;;;;;;;22.29;70.86;94533.41;4937803;29;20671;-78
2022/06/22 00:34:10;;;;;;;9.35;6.10;;;;;;;22.24;71.60;94530.81;4937522;29;20170;-78
2022/06/22 00:36:55;;;;;;;5.97;5.35;;;;;;;22.27;71.84;94532.91;4921352;29;20186;-78
2022/06/22 00:39:21;;;;;;;8.77;6.07;;;;;;;22.22;71.93;94527.63;4921810;29;20558;-78
2022/06/22 00:42:14;;;;;;;10.18;6.95;;;;;;;22.23;71.59;94539.97;4921236;29;20194;-78
2022/06/22 00:44:56;;;;;;;7.47;5.85;;;;;;;22.26;71.86;94528.63;4938395;29;20167;-78
2022/06/22 00:47:33;;;;;;;12.48;6.15;;;;;;;22.24;72.18;94534.28;4938297;29;20246;-78
2022/06/22 00:50:19;;;;;;;10.50;7.00;;;;;;;22.21;72.25;94526.84;4937899;29;20234;-78
2022/06/22 00:52:46;;;;;;;10.80;7.18;;;;;;;22.30;72.27;94540.38;4938253;29;20163;-78
2022/06/22 00:55:26;;;;;;;13.15;7.32;;;;;;;22.31;72.36;94542.78;4938714;29;20163;-78
2022/06/22 00:58:02;;;;;;;19.02;9.88;;;;;;;22.22;72.17;94527.63;4938712;29;20159;-78
2022/06/22 01:00:32;;;;;;;21.60;11.75;;;;;;;22.38;72.12;94539.72;4938661;29;20174;-79
2022/06/22 01:03:24;;;;;;;17.65;7.75;;;;;;;22.37;72.21;94540.81;4938257;29;20659;-79
2022/06/22 01:06:17;;;;;;;14.20;8.25;;;;;;;22.38;72.27;94537.03;4929882;29;20282;-79
2022/06/22 01:09:02;;;;;;;14.32;8.18;;;;;;;22.23;72.51;94518.50;4928540;29;20234;-79
2022/06/22 01:14:51;;;;;;;16.50;10.60;;;;;;;22.23;72.73;94513.91;4938157;29;20259;-79
2022/06/22 01:17:58;;;;;;;24.17;12.32;;;;;;;22.39;72.58;94528.69;4938067;29;20227;-79
2022/06/22 01:20:29;;;;;;;19.13;10.38;;;;;;;22.44;72.35;94541.22;4876503;29;20672;-78
2022/06/22 01:22:55;;;;;;;22.10;13.43;;;;;;;22.39;72.41;94536.75;4938077;29;20259;-78
2022/06/22 01:25:26;;;;;;;18.67;12.48;;;;;;;22.38;72.47;94526.31;4937873;29;20625;-78
2022/06/22 01:27:52;;;;;;;18.17;8.25;;;;;;;22.34;72.38;94514.56;4938159;29;20175;-78
2022/06/22 01:30:27;;;;;;;14.55;8.88;;;;;;;22.32;72.72;94514.03;4937941;29;20198;-78
2022/06/22 01:32:52;;;;;;;11.93;7.47;;;;;;;22.13;73.50;94501.47;4937698;29;20593;-78
2022/06/22 01:35:26;;;;;;;41.10;24.88;;;;;;;22.20;73.36;94515.31;4937485;29;20164;-78
2022/06/22 01:37:53;;;;;;;29.58;17.42;;;;;;;22.19;73.59;94508.34;4937757;29;20268;-78
2022/06/22 01:40:24;;;;;;;23.30;11.57;;;;;;;22.15;73.61;94507.31;4937638;29;20159;-78
2022/06/22 01:43:28;;;;;;;14.45;8.02;;;;;;;22.08;74.00;94514.94;4937456;29;20243;-79
2022/06/22 01:46:20;;;;;;;31.88;18.55;;;;;;;22.11;73.79;94503.66;4925873;29;20198;-79
2022/06/22 01:49:11;;;;;;;20.67;10.93;;;;;;;21.96;74.47;94482.41;4926531;29;20286;-78
2022/06/22 01:51:50;;;;;;;23.10;10.60;;;;;;;21.95;74.70;94483.50;4937346;29;20796;-78
2022/06/22 01:54:30;;;;;;;22.05;10.65;;;;;;;22.01;74.92;94494.94;4920592;29;20167;-78
2022/06/22 01:57:24;;;;;;;19.45;11.18;;;;;;;21.82;75.26;94493.03;4937110;29;20207;-78
2022/06/22 01:59:59;;;;;;;13.13;8.35;;;;;;;21.84;75.14;94511.50;4937277;29;20584;-78
2022/06/22 02:02:41;;;;;;;16.00;9.18;;;;;;;21.78;75.44;94507.31;4937297;29;20576;-78
2022/06/22 02:05:22;;;;;;;9.13;7.40;;;;;;;21.79;75.44;94500.88;4937441;29;20179;-78
2022/06/22 02:07:56;;;;;;;14.05;8.50;;;;;;;21.85;75.68;94507.75;4937180;29;20166;-79
2022/06/22 02:10:34;;;;;;;15.90;8.65;;;;;;;21.89;75.60;94508.75;4937002;29;20206;-78
2022/06/22 02:13:37;;;;;;;10.30;7.78;;;;;;;21.95;75.14;94498.78;4937180;29;20230;-78
2022/06/22 02:16:23;;;;;;;11.98;6.97;;;;;;;21.82;74.93;94466.25;4937325;29;20170;-79
2022/06/22 02:18:56;;;;;;;19.58;9.30;;;;;;;21.94;74.56;94473.06;4937045;29;20147;-78
2022/06/22 02:21:49;;;;;;;10.90;7.68;;;;;;;22.03;74.52;94493.59;4937041;29;20160;-78
2022/06/22 02:24:27;;;;;;;12.43;7.45;;;;;;;22.02;74.31;94497.34;4937165;29;20777;-78
2022/06/22 02:27:01;;;;;;;13.30;7.35;;;;;;;22.00;74.30;94493.34;4936994;29;20201;-79
2022/06/22 02:29:41;;;;;;;15.60;7.72;;;;;;;21.83;74.83;94494.63;4936572;29;20206;-78
2022/06/22 02:32:10;;;;;;;15.50;7.63;;;;;;;21.75;74.61;94497.16;4918428;29;20191;-78
2022/06/22 02:34:39;;;;;;;14.90;8.80;;;;;;;21.66;75.19;94499.69;4918514;29;20574;-78
2022/06/22 02:37:08;;;;;;;9.02;6.85;;;;;;;21.68;74.85;94499.41;4918386;29;20190;-78
2022/06/22 02:40:03;;;;;;;12.35;8.18;;;;;;;21.42;75.28;94467.59;4935506;29;20187;-78
2022/06/22 02:45:17;;;;;;;14.75;7.30;;;;;;;21.38;75.63;94471.13;4935396;29;21032;-78
2022/06/22 02:47:55;;;;;;;13.27;7.50;;;;;;;21.53;75.60;94488.91;4935328;29;20718;-78
2022/06/22 02:50:59;;;;;;;16.35;8.13;;;;;;;21.50;75.87;94484.13;4925534;29;20233;-78
2022/06/22 02:53:35;;;;;;;17.48;9.38;;;;;;;21.48;75.61;94486.28;4923402;29;20191;-78
2022/06/22 02:56:04;;;;;;;19.25;11.45;;;;;;;21.41;75.71;94470.56;4934356;29;20226;-78
2022/06/22 02:58:33;;;;;;;15.63;10.80;;;;;;;21.52;76.22;94500.69;4935209;29;20171;-78
2022/06/22 03:01:04;;;;;;;16.75;10.65;;;;;;;21.30;76.27;94467.22;4935273;29;20217;-78
2022/06/22 03:03:30;;;;;;;19.33;10.43;;;;;;;21.58;76.22;94510.25;4925995;29;20198;-78
2022/06/22 03:05:57;;;;;;;13.95;10.18;;;;;;;21.57;76.29;94504.09;4935308;29;20577;-79
2022/06/22 03:08:24;;;;;;;13.07;8.27;;;;;;;21.46;76.25;94494.59;4935726;29;20234;-79
2022/06/22 03:10:59;;;;;;;14.05;8.30;;;;;;;21.58;76.84;94502.22;4935701;29;20218;-79
2022/06/22 03:13:29;;;;;;;14.05;8.52;;;;;;;21.56;76.60;94488.31;4933750;29;20198;-79
2022/06/22 03:15:56;;;;;;;15.65;9.13;;;;;;;21.63;76.47;94500.25;4935474;29;20254;-78
2022/06/22 03:18:28;;;;;;;13.93;8.13;;;;;;;21.64;76.75;94509.09;4935350;29;20602;-79
2022/06/22 03:21:01;;;;;;;15.65;7.43;;;;;;;21.75;76.35;94505.22;4918364;29;20551;-79
2022/06/22 03:23:47;;;;;;;12.68;8.27;;;;;;;21.79;76.17;94504.31;4935460;29;20167;-78
2022/06/22 03:26:18;;;;;;;11.27;8.05;;;;;;;21.81;76.00;94507.53;4934416;29;20258;-78
2022/06/22 03:28:54;;;;;;;14.90;8.27;;;;;;;21.83;75.72;94496.53;4933249;29;20170;-79
2022/06/22 03:31:29;;;;;;;15.65;8.73;;;;;;;21.90;75.42;94493.47;4934399;29;20203;-78
2022/06/22 03:34:03;;;;;;;13.32;8.05;;;;;;;21.98;75.22;94503.56;4934468;29;20169;-78
2022/06/22 03:37:04;;;;;;;20.27;9.05;;;;;;;22.03;75.01;94492.78;4935164;29;20179;-78
2022/06/22 03:39:33;;;;;;;11.48;7.85;;;;;;;22.03;75.19;94493.59;4917519;29;20199;-79
2022/06/22 03:42:12;;;;;;;15.10;8.13;;;;;;;22.10;74.87;94507.41;4933129;29;20182;-78
2022/06/22 03:44:55;;;;;;;16.83;8.63;;;;;;;22.10;75.39;94502.06;4930853;29;20183;-81
2022/06/22 03:47:34;;;;;;;12.15;7.78;;;;;;;22.17;74.90;94499.00;4933376;29;20171;-81
2022/06/22 03:50:52;;;;;;;13.88;8.23;;;;;;;21.95;75.65;94499.56;4917669;29;20286;-81
2022/06/22 03:53:28;;;;;;;13.77;8.68;;;;;;;21.91;75.76;94513.84;4931316;29;20615;-79
2022/06/22 03:56:01;;;;;;;11.85;8.75;;;;;;;21.70;75.64;94483.84;4932680;29;20207;-79
2022/06/22 03:58:27;;;;;;;23.38;8.68;;;;;;;21.74;76.03;94506.28;4932588;29;20183;-79
2022/06/22 04:00:54;;;;;;;17.55;8.85;;;;;;;21.91;76.53;94537.97;4933296;29;20254;-80
2022/06/22 04:03:20;;;;;;;15.52;8.75;;;;;;;22.03;76.93;94530.31;4934425;29;20175;-80
2022/06/22 04:05:52;;;;;;;12.82;7.57;;;;;;;22.02;76.40;94518.78;4932502;29;21987;-78
2022/06/22 04:08:32;;;;;;;12.73;7.75;;;;;;;22.33;76.79;94529.06;4934432;29;20618;-78
2022/06/22 04:11:25;;;;;;;18.58;7.43;;;;;;;22.63;75.75;94530.47;4934516;29;21094;-78
2022/06/22 04:14:10;;;;;;;16.02;8.60;;;;;;;22.83;76.09;94522.09;4934622;29;20175;-78
2022/06/22 04:16:42;;;;;;;10.43;7.50;;;;;;;23.05;74.76;94524.09;4932378;29;20177;-78
2022/06/22 04:19:19;;;;;;;12.48;8.13;;;;;;;23.31;74.54;94517.97;4932613;29;20258;-78
2022/06/22 04:21:50;;;;;;;14.55;7.65;;;;;;;23.59;73.31;94507.22;4933514;29;20263;-78
2022/06/22 04:24:31;;;;;;;16.40;7.22;;;;;;;23.92;71.18;94508.66;4933398;29;21063;-78
2022/06/22 04:27:07;;;;;;;11.90;8.10;;;;;;;23.65;70.19;94452.25;4916066;29;20198;-78
2022/06/22 04:29:42;;;;;;;13.52;7.20;;;;;;;24.18;70.45;94505.41;4915765;29;20735;-78
2022/06/22 04:32:24;;;;;;;10.23;7.28;;;;;;;24.32;69.56;94511.53;4931876;29;20655;-78
2022/06/22 04:35:28;;;;;;;12.75;7.43;;;;;;;24.38;68.85;94513.84;4914149;29;20164;-77
2022/06/22 04:37:55;;;;;;;11.48;7.05;;;;;;;24.51;69.07;94519.44;4915093;29;20195;-77
2022/06/22 04:40:41;;;;;;;13.10;7.72;;;;;;;24.65;68.08;94528.28;4915027;29;20176;-77
2022/06/22 04:43:09;;;;;;;15.38;8.63;;;;;;;24.86;68.46;94525.84;4914839;29;20263;-77
2022/06/22 04:45:43;;;;;;;13.70;7.57;;;;;;;25.02;66.85;94517.09;4926522;29;20167;-79
2022/06/22 04:48:20;;;;;;;13.13;7.65;;;;;;;25.41;66.29;94537.09;4934094;29;20518;-79
2022/06/22 04:50:48;;;;;;;12.27;6.40;;;;;;;25.68;65.81;94533.41;4946017;29;20230;-78
2022/06/22 04:53:26;;;;;;;12.40;6.55;;;;;;;25.95;65.04;94540.44;4934107;29;20183;-76
2022/06/22 04:55:52;;;;;;;9.98;6.20;;;;;;;26.33;64.29;94541.44;4934137;29;20175;-77
2022/06/22 04:58:41;;;;;;;10.43;6.40;;;;;;;26.71;61.96;94541.59;4934007;29;20186;-77
2022/06/22 05:01:13;;;;;;;10.93;6.80;;;;;;;27.03;60.82;94546.50;4902023;29;20200;-77
2022/06/22 05:03:39;;;;;;;8.75;6.63;;;;;;;27.24;60.65;94524.97;4914968;29;20176;-77
2022/06/22 05:06:15;;;;;;;11.20;6.80;;;;;;;27.70;58.41;94556.59;4914829;29;20585;-77
2022/06/22 05:08:50;;;;;;;8.48;6.38;;;;;;;28.00;58.88;94559.31;4917030;29;20627;-77
2022/06/22 05:11:22;;;;;;;13.02;6.18;;;;;;;28.26;58.39;94556.47;4917671;29;20304;-77
2022/06/22 05:13:51;;;;;;;10.48;6.65;;;;;;;28.57;56.72;94545.25;4917256;29;20175;-77
2022/06/22 05:16:21;;;;;;;9.73;7.50;;;;;;;28.85;56.02;94562.56;4917920;29;20187;-77
2022/06/22 05:18:49;;;;;;;7.85;5.57;;;;;;;29.17;54.88;94567.16;4917270;29;20188;-77
2022/06/22 05:21:32;;;;;;;10.40;6.28;;;;;;;29.59;53.65;94556.19;4917193;29;20251;-77
2022/06/22 05:24:01;;;;;;;9.32;7.18;;;;;;;29.76;52.83;94528.03;4909861;29;20683;-77
2022/06/22 05:26:29;;;;;;;11.48;6.50;;;;;;;30.28;51.23;94561.50;4917700;29;20175;-77
2022/06/22 05:29:02;;;;;;;9.77;6.93;;;;;;;30.60;50.47;94565.22;4901092;29;20588;-77
2022/06/22 05:31:31;;;;;;;9.63;6.75;;;;;;;30.86;50.37;94556.63;4918017;29;20203;-77
2022/06/22 05:34:04;;;;;;;16.48;6.35;;;;;;;31.04;49.15;94555.19;4918896;29;20259;-76
2022/06/22 05:36:37;;;;;;;9.40;6.35;;;;;;;31.15;48.80;94550.03;4919065;29;20207;-77
2022/06/22 05:39:04;;;;;;;13.65;7.60;;;;;;;31.37;49.05;94551.41;4918996;29;20172;-77
2022/06/22 05:41:33;;;;;;;15.30;6.57;;;;;;;31.62;48.86;94554.78;4917845;29;20172;-78
2022/06/22 05:44:04;;;;;;;16.17;8.63;;;;;;;31.82;46.65;94553.72;4917789;29;20187;-77
2022/06/22 05:46:29;;;;;;;10.75;6.10;;;;;;;31.97;46.65;94552.13;4909957;29;20171;-77
2022/06/22 05:48:56;;;;;;;12.32;6.72;;;;;;;32.13;46.83;94564.56;4917988;29;20551;-77
2022/06/22 05:51:27;;;;;;;13.68;8.48;;;;;;;32.21;46.70;94571.78;4925914;29;20707;-77
2022/06/22 05:53:59;;;;;;;14.25;6.68;;;;;;;32.22;46.56;94569.88;4920692;29;20958;-77
2022/06/22 05:56:44;;;;;;;15.20;11.57;;;;;;;32.08;46.20;94559.41;4918962;29;20562;-77
2022/06/22 05:59:29;;;;;;;29.98;17.13;;;;;;;31.95;45.73;94560.66;4936799;29;20171;-77
2022/06/22 06:02:04;;;;;;;12.25;7.35;;;;;;;31.95;46.21;94557.91;4936763;29;20209;-77
2022/06/22 06:05:03;;;;;;;15.15;6.53;;;;;;;32.01;46.85;94569.31;4936279;29;20225;-77
2022/06/22 06:07:33;;;;;;;10.48;6.57;;;;;;;32.01;46.63;94574.78;4932437;29;20159;-77
2022/06/22 06:10:01;;;;;;;13.05;7.10;;;;;;;32.07;47.18;94563.28;4936309;29;20274;-77
2022/06/22 06:12:35;;;;;;;6.90;6.15;;;;;;;32.10;47.60;94561.75;4936493;29;20250;-77
2022/06/22 06:15:02;;;;;;;11.82;7.43;;;;;;;32.05;47.70;94545.69;4931885;29;20185;-77
2022/06/22 06:17:44;;;;;;;14.88;7.03;;;;;;;32.00;47.31;94535.84;4936181;29;20230;-77
2022/06/22 06:20:28;;;;;;;11.50;6.35;;;;;;;32.10;47.63;94553.59;4918110;29;20171;-77
2022/06/22 06:23:02;;;;;;;10.35;6.22;;;;;;;32.27;48.58;94561.41;4936029;29;20258;-77
2022/06/22 06:28:56;;;;;;;9.65;6.68;;;;;;;32.36;47.72;94559.25;4936406;29;20182;-77
2022/06/22 06:31:29;;;;;;;10.45;6.85;;;;;;;32.35;47.28;94562.34;4936051;29;20203;-77
2022/06/22 06:33:56;;;;;;;10.77;6.45;;;;;;;32.10;46.80;94551.66;4931794;29;20217;-77
2022/06/22 06:36:28;;;;;;;10.00;6.80;;;;;;;31.63;47.52;94569.97;4918408;29;20580;-77
2022/06/22 06:39:03;;;;;;;13.40;6.85;;;;;;;31.41;51.10;94555.00;4935631;29;20646;-77
2022/06/22 06:41:47;;;;;;;10.38;5.70;;;;;;;31.47;50.56;94550.91;4935865;29;20193;-77
2022/06/22 06:44:20;;;;;;;13.45;6.40;;;;;;;31.65;51.36;94560.31;4935588;29;20182;-77
2022/06/22 06:46:53;;;;;;;15.85;7.50;;;;;;;31.86;49.75;94554.59;4935541;29;20210;-77
2022/06/22 06:49:30;;;;;;;12.15;6.50;;;;;;;31.98;50.87;94548.25;4918356;29;20175;-77
2022/06/22 06:52:06;;;;;;;7.47;6.38;;;;;;;32.24;47.58;94548.50;4935577;29;20222;-77
2022/06/22 06:54:39;;;;;;;7.72;6.15;;;;;;;32.27;47.78;94545.03;4932673;29;20655;-77
2022/06/22 06:57:07;;;;;;;11.30;6.35;;;;;;;32.02;48.85;94489.19;4935786;29;20175;-77
2022/06/22 06:59:34;;;;;;;10.88;6.28;;;;;;;32.38;49.69;94528.94;4935628;29;20214;-78
2022/06/22 07:02:05;;;;;;;12.30;6.25;;;;;;;32.33;47.17;94538.19;4935318;29;20188;-77
2022/06/22 07:04:33;;;;;;;9.98;6.50;;;;;;;32.46;48.51;94545.09;4935405;29;20715;-78
2022/06/22 07:07:17;;;;;;;13.25;7.18;;;;;;;32.47;47.32;94537.69;4935379;29;20200;-77
2022/06/22 07:09:44;;;;;;;19.88;10.68;;;;;;;32.65;49.79;94532.63;4928925;29;20187;-78
2022/06/22 07:12:36;;;;;;;21.88;17.23;;;;;;;32.92;47.18;94542.53;4928006;29;20560;-75
2022/06/22 07:15:04;;;;;;;15.95;8.93;;;;;;;32.97;46.40;94537.56;4927372;29;20617;-75
2022/06/22 07:17:32;;;;;;;8.20;6.82;;;;;;;33.19;47.45;94538.78;4933952;29;20179;-75
2022/06/22 07:20:05;;;;;;;8.18;6.80;;;;;;;33.26;47.50;94538.94;4934244;29;20167;-75
2022/06/22 07:22:37;;;;;;;9.95;6.60;;;;;;;33.24;46.89;94537.72;4934653;29;20183;-75
2022/06/22 07:25:13;;;;;;;13.85;7.05;;;;;;;33.30;48.07;94531.59;4934603;29;20179;-77
2022/06/22 07:28:08;;;;;;;10.02;7.28;;;;;;;33.22;47.79;94532.59;4933007;29;20254;-78
2022/06/22 07:30:47;;;;;;;12.05;7.22;;;;;;;33.32;46.72;94529.28;4917542;29;20199;-78
2022/06/22 07:33:25;;;;;;;11.02;7.15;;;;;;;33.50;47.23;94537.78;4935306;29;20186;-77
2022/06/22 07:36:09;;;;;;;11.05;7.82;;;;;;;33.58;45.96;94520.38;4934403;29;20179;-77
2022/06/22 07:38:45;;;;;;;11.48;8.98;;;;;;;33.62;46.03;94532.16;4926390;29;20670;-78
2022/06/22 07:41:19;;;;;;;16.00;10.32;;;;;;;33.49;45.68;94527.22;4930011;29;20249;-78
2022/06/22 07:43:49;;;;;;;17.42;10.75;;;;;;;33.43;45.52;94510.38;4934984;29;20171;-79
2022/06/22 07:46:23;;;;;;;20.15;13.88;;;;;;;33.51;45.69;94506.59;4934397;29;20270;-78
2022/06/22 07:48:53;;;;;;;19.38;11.70;;;;;;;33.67;45.71;94536.50;4934102;29;20178;-79
2022/06/22 07:51:26;;;;;;;16.15;11.82;;;;;;;33.57;44.80;94498.88;4934032;29;20254;-78
2022/06/22 07:53:54;;;;;;;22.80;11.93;;;;;;;33.91;44.61;94535.34;4939893;29;20383;-78
2022/06/22 07:56:34;;;;;;;15.18;11.27;;;;;;;33.85;44.04;94540.34;4934662;29;20167;-78
2022/06/22 07:59:03;;;;;;;21.00;13.35;;;;;;;33.83;44.70;94536.41;4923514;29;20175;-81
2022/06/22 08:01:35;;;;;;;17.98;12.43;;;;;;;34.03;45.21;94538.69;4931306;29;20189;-80
2022/06/22 08:04:06;;;;;;;17.40;12.80;;;;;;;33.99;45.20;94548.75;4934311;29;20178;-81
2022/06/22 08:06:39;;;;;;;16.65;11.18;;;;;;;33.62;44.99;94542.28;4909575;29;20187;-86
2022/06/22 08:09:51;;;;;;;14.98;9.98;;;;;;;33.24;46.49;94545.91;4929325;29;20171;-81
2022/06/22 08:12:25;;;;;;;15.73;12.48;;;;;;;32.81;46.58;94549.72;4888643;29;20191;-82
2022/06/22 08:14:53;;;;;;;24.70;15.15;;;;;;;32.51;46.18;94550.28;4934710;29;20182;-80
2022/06/22 08:17:25;;;;;;;20.15;13.23;;;;;;;32.25;47.15;94550.09;4932573;29;20175;-82
2022/06/22 08:19:50;;;;;;;13.73;10.20;;;;;;;31.98;48.30;94537.38;4917791;29;20183;-81
2022/06/22 08:22:16;;;;;;;14.70;10.30;;;;;;;31.83;49.51;94553.34;4934693;29;20994;-81
2022/06/22 08:24:46;;;;;;;14.88;10.43;;;;;;;32.05;51.54;94549.22;4934481;29;20187;-82
2022/06/22 08:27:18;;;;;;;17.58;11.02;;;;;;;32.28;49.65;94524.03;4934771;29;20582;-82
2022/06/22 08:29:46;;;;;;;16.88;10.00;;;;;;;32.76;49.83;94547.28;4934437;29;20198;-80
2022/06/22 08:32:19;;;;;;;16.48;10.57;;;;;;;32.83;47.47;94541.97;4934594;29;20207;-80
2022/06/22 08:34:53;;;;;;;13.77;10.35;;;;;;;32.90;48.04;94529.25;4934697;29;20178;-81
2022/06/22 08:37:28;;;;;;;19.20;11.35;;;;;;;33.25;49.50;94545.53;4935049;29;20234;-82
2022/06/22 08:40:01;;;;;;;22.25;11.68;;;;;;;33.22;45.72;94538.06;4934390;29;20233;-82
2022/06/22 08:42:55;;;;;;;15.13;9.45;;;;;;;33.01;47.24;94517.78;4934188;29;20183;-80
2022/06/22 08:45:49;;;;;;;14.40;10.73;;;;;;;33.09;45.67;94544.03;4930525;29;20186;-82
2022/06/22 08:48:40;;;;;;;16.50;10.27;;;;;;;32.98;45.53;94527.47;4935810;29;20178;-79
2022/06/22 08:51:09;;;;;;;11.27;8.25;;;;;;;32.92;45.56;94539.81;4925392;29;20219;-79
2022/06/22 08:53:52;;;;;;;14.68;8.32;;;;;;;32.82;43.98;94538.47;4937922;29;20223;-79
2022/06/22 08:56:38;;;;;;;13.88;8.35;;;;;;;32.65;45.71;94513.53;4930186;29;20698;-81
2022/06/22 08:59:28;;;;;;;13.25;7.70;;;;;;;32.65;45.83;94527.94;4937418;29;20266;-80
2022/06/22 09:01:59;;;;;;;16.98;8.27;;;;;;;32.73;46.81;94529.69;4938359;29;20167;-79
2022/06/22 09:04:51;;;;;;;13.43;8.75;;;;;;;32.60;45.67;94518.13;4920712;29;20573;-83
2022/06/22 09:07:34;;;;;;;12.40;7.75;;;;;;;32.58;47.36;94514.97;4933679;29;20175;-82
2022/06/22 09:10:29;;;;;;;15.30;8.02;;;;;;;32.53;44.38;94506.25;4937684;29;20206;-81
2022/06/22 09:13:18;;;;;;;14.73;8.15;;;;;;;32.47;46.11;94511.22;4937806;29;20189;-81
2022/06/22 09:15:55;;;;;;;11.50;8.15;;;;;;;32.61;46.52;94508.78;4929651;29;20219;-81
2022/06/22 09:18:58;;;;;;;14.48;8.55;;;;;;;32.70;46.29;94526.91;4934419;29;20178;-82
2022/06/22 09:22:02;;;;;;;17.85;9.23;;;;;;;32.58;48.15;94509.50;4937441;29;20171;-83
2022/06/22 09:24:41;;;;;;;13.68;7.75;;;;;;;32.65;46.71;94508.06;4932041;29;20182;-82
2022/06/22 09:27:20;;;;;;;16.77;8.60;;;;;;;32.29;45.93;94482.81;4937296;29;20187;-83
2022/06/22 09:30:12;;;;;;;11.25;7.40;;;;;;;32.36;45.46;94490.34;4937363;29;20546;-82
2022/06/22 09:32:53;;;;;;;15.45;7.78;;;;;;;32.26;47.61;94488.97;4936593;29;20215;-86
2022/06/22 09:35:43;;;;;;;13.40;7.97;;;;;;;32.12;44.35;94475.81;4937456;29;20191;-81
2022/06/22 09:38:20;;;;;;;11.07;7.13;;;;;;;31.87;46.90;94477.19;4929270;29;20179;-84
2022/06/22 09:40:46;;;;;;;13.02;6.88;;;;;;;31.82;47.04;94480.19;4920341;29;20251;-83
2022/06/22 09:43:34;;;;;;;13.00;6.53;;;;;;;31.62;45.28;94471.19;4936719;29;20239;-84
2022/06/22 09:46:02;;;;;;;16.90;6.93;;;;;;;31.35;45.42;94489.16;4923649;29;20191;-84
2022/06/22 09:48:40;;;;;;;9.52;6.35;;;;;;;31.11;46.42;94490.13;4937211;29;20179;-83
2022/06/22 09:51:47;;;;;;;11.43;6.75;;;;;;;30.67;47.31;94469.47;4920058;29;20191;-80
2022/06/22 09:57:38;;;;;;;15.85;6.00;;;;;;;30.86;46.15;94488.66;4936947;29;20382;-81
2022/06/22 10:00:14;;;;;;;11.20;5.70;;;;;;;30.94;48.80;94468.66;4919860;29;20246;-83
2022/06/22 10:02:51;;;;;;;11.02;5.95;;;;;;;31.32;48.95;94489.06;4929556;29;20671;-81
2022/06/22 10:05:29;;;;;;;14.27;6.57;;;;;;;31.57;48.64;94481.53;4918453;29;20168;-83
2022/06/22 10:08:16;;;;;;;13.82;6.22;;;;;;;31.72;47.66;94500.59;4900848;29;20234;-79
2022/06/22 10:10:54;;;;;;;10.18;6.45;;;;;;;31.64;48.47;94503.50;4918109;29;20228;-84
2022/06/22 10:13:42;;;;;;;10.13;6.78;;;;;;;31.56;47.95;94509.88;4926769;29;20202;-83
2022/06/22 10:16:30;;;;;;;13.75;6.63;;;;;;;31.34;48.67;94514.78;4935044;29;20171;-83
2022/06/22 10:18:58;;;;;;;10.95;6.68;;;;;;;31.22;48.33;94516.81;4933286;29;20239;-83
2022/06/22 10:21:48;;;;;;;9.77;6.55;;;;;;;30.99;48.50;94513.84;4934094;29;20172;-84
2022/06/22 10:24:41;;;;;;;15.45;6.93;;;;;;;30.91;49.81;94525.66;4932903;29;20175;-83
2022/06/22 10:27:35;;;;;;;13.63;7.50;;;;;;;30.64;49.81;94525.31;4933327;29;20199;-83
2022/06/22 10:30:12;;;;;;;15.20;7.07;;;;;;;30.46;51.05;94515.03;4933161;29;20286;-83
2022/06/22 10:33:15;;;;;;;20.80;7.55;;;;;;;30.46;50.77;94521.28;4934572;29;20233;-83
2022/06/22 10:35:58;;;;;;;10.50;7.45;;;;;;;30.37;51.75;94509.75;4933135;29;20166;-84
2022/06/22 10:38:26;;;;;;;12.07;7.18;;;;;;;30.31;50.90;94522.00;4934308;29;20287;-83
2022/06/22 10:47:20;;;;;;;9.27;6.80;;;;;;;30.28;51.59;94509.09;4934815;29;20198;-83
2022/06/22 10:50:11;;;;;;;14.15;7.32;;;;;;;30.31;52.60;94511.94;4934578;29;20679;-83
2022/06/22 10:53:03;;;;;;;10.98;6.50;;;;;;;30.28;51.83;94499.03;4934167;29;20210;-83
2022/06/22 10:56:04;;;;;;;21.10;9.93;;;;;;;30.38;52.03;94505.91;4934363;29;20187;-83
2022/06/22 10:59:01;;;;;;;8.98;7.18;;;;;;;30.44;52.48;94520.84;4917223;29;20191;-84
2022/06/22 11:01:27;;;;;;;10.02;6.65;;;;;;;30.58;53.75;94509.63;4934333;29;20262;-83
2022/06/22 11:03:57;;;;;;;13.70;8.20;;;;;;;30.59;53.31;94509.28;4934170;29;20271;-83
2022/06/22 11:06:46;;;;;;;13.68;7.85;;;;;;;30.60;52.43;94505.41;4933673;29;20238;-83
2022/06/22 11:09:30;;;;;;;9.98;6.95;;;;;;;30.56;52.96;94490.13;4917575;29;20269;-83
2022/06/22 11:12:24;;;;;;;12.68;6.80;;;;;;;30.53;53.79;94477.25;4916932;29;20203;-84
2022/06/22 11:15:19;;;;;;;14.95;7.10;;;;;;;30.78;53.01;94503.19;4934110;29;20515;-84
2022/06/22 11:18:09;;;;;;;10.65;6.55;;;;;;;30.69;51.42;94511.50;4883055;29;20269;-83
2022/06/22 11:20:49;;;;;;;10.75;7.22;;;;;;;30.55;51.44;94504.84;4933844;29;20259;-83
2022/06/22 11:23:37;;;;;;;14.02;7.22;;;;;;;30.37;51.63;94515.19;4933992;29;20190;-83
2022/06/22 11:32:47;;;;;;;17.20;7.75;;;;;;;30.04;53.79;94506.44;4933952;29;20201;-83
2022/06/22 11:35:49;;;;;;;14.60;7.45;;;;;;;29.61;51.11;94505.09;4860005;29;20225;-83
2022/06/22 11:38:41;;;;;;;15.65;7.75;;;;;;;29.34;54.37;94508.44;4933471;29;20167;-83
2022/06/22 11:41:29;;;;;;;12.35;6.63;;;;;;;29.31;53.10;94509.13;4904269;29;20215;-83
2022/06/22 11:44:24;;;;;;;13.65;7.63;;;;;;;29.15;53.90;94498.91;4933521;29;20171;-83
2022/06/22 11:46:54;;;;;;;16.85;7.68;;;;;;;29.27;54.87;94504.38;4933320;29;20181;-83
2022/06/22 11:49:19;;;;;;;14.77;7.88;;;;;;;29.40;53.61;94505.22;4933577;29;20670;-83
2022/06/22 11:52:17;;;;;;;12.25;7.70;;;;;;;29.40;54.69;94499.78;4933160;29;20273;-83
2022/06/22 11:55:00;;;;;;;11.27;8.05;;;;;;;29.41;53.67;94495.91;4891224;29;20288;-83
2022/06/22 11:58:17;;;;;;;12.38;7.80;;;;;;;29.55;53.26;94498.31;4933397;29;20648;-83
2022/06/22 12:01:19;;;;;;;9.82;7.30;;;;;;;29.67;54.12;94494.78;4904767;29;20618;-83
2022/06/22 12:04:12;;;;;;;11.80;7.57;;;;;;;29.84;54.11;94492.63;4933210;29;20173;-83
2022/06/22 12:07:00;;;;;;;12.45;8.10;;;;;;;29.95;55.17;94501.94;4933751;29;20189;-83
2022/06/22 12:09:44;;;;;;;15.18;8.07;;;;;;;29.93;54.23;94506.88;4933639;29;21081;-83
2022/06/22 12:12:31;;;;;;;12.80;7.95;;;;;;;30.00;54.32;94503.63;4910325;29;20186;-82
2022/06/22 12:15:16;;;;;;;11.88;8.65;;;;;;;30.23;54.21;94503.91;4934831;29;20179;-82
2022/06/22 12:18:11;;;;;;;13.95;7.75;;;;;;;30.17;52.22;94462.63;4934300;29;20227;-81
2022/06/22 12:20:55;;;;;;;16.10;9.38;;;;;;;30.39;51.23;94500.13;4896755;29;20197;-82
2022/06/22 12:23:28;;;;;;;11.00;8.43;;;;;;;30.35;51.22;94504.69;4927591;29;20211;-82
2022/06/22 12:26:18;;;;;;;15.98;9.60;;;;;;;30.16;52.43;94473.84;4934479;29;20277;-81
2022/06/22 12:29:08;;;;;;;15.02;8.45;;;;;;;30.38;53.18;94506.69;4929868;29;20171;-81
2022/06/22 12:31:40;;;;;;;15.02;8.63;;;;;;;30.08;51.15;94485.63;4944112;29;20219;-81
2022/06/22 12:34:29;;;;;;;16.05;8.98;;;;;;;29.92;51.60;94501.81;4936008;29;20171;-81
2022/06/22 12:36:59;;;;;;;10.98;8.02;;;;;;;29.76;52.49;94509.03;4937369;29;20683;-81
2022/06/22 12:39:30;;;;;;;12.52;8.95;;;;;;;29.65;53.21;94508.72;4938335;29;20206;-81
2022/06/22 12:42:14;;;;;;;14.05;9.13;;;;;;;29.66;54.21;94506.81;4934379;29;20172;-81